Time;durP1;ratioP1;P1;durP2;ratioP2;P2;SDS_P1;SDS_P2;PMS_P1;PMS_P2;Temp;Humidity;BMP_temperature;BMP_pressure;BME280_temperature;BME280_humidity;BME280_pressure;Samples;Min_cycle;Max_cycle;Signal;HPM_P1;HPM_P2
2021/11/25 00:02:14;;;;;;;13.47;11.43;;;;;;;0.31;100.00;97691.06;4979889;28;20213;-72
2021/11/25 00:04:44;;;;;;;15.57;12.13;;;;;;;0.29;100.00;97683.34;4973982;28;20248;-72
2021/11/25 00:07:12;;;;;;;15.10;12.57;;;;;;;0.25;100.00;97682.75;4961086;28;20229;-72
2021/11/25 00:09:40;;;;;;;15.17;13.43;;;;;;;0.27;100.00;97672.19;4975300;28;20212;-72
2021/11/25 00:12:09;;;;;;;15.63;13.13;;;;;;;0.27;100.00;97678.25;4980949;28;20621;-72
2021/11/25 00:14:37;;;;;;;14.03;12.23;;;;;;;0.33;100.00;97673.56;4921706;28;21001;-72
2021/11/25 00:17:07;;;;;;;15.87;13.13;;;;;;;0.25;100.00;97671.47;4982440;28;20224;-72
2021/11/25 00:19:35;;;;;;;20.03;14.17;;;;;;;0.23;100.00;97670.75;4974972;28;20703;-72
2021/11/25 00:22:03;;;;;;;17.77;12.63;;;;;;;0.25;100.00;97658.44;4962698;28;20213;-72
2021/11/25 00:24:32;;;;;;;16.77;12.03;;;;;;;0.24;100.00;97665.44;4975248;28;20989;-72
2021/11/25 00:27:00;;;;;;;15.60;12.87;;;;;;;0.16;100.00;97652.09;4981193;28;20600;-72
2021/11/25 00:29:28;;;;;;;16.87;13.17;;;;;;;0.19;100.00;97667.53;4931962;28;20217;-72
2021/11/25 00:31:56;;;;;;;18.50;14.03;;;;;;;0.23;100.00;97662.94;4975746;28;20977;-72
2021/11/25 00:34:26;;;;;;;19.37;14.53;;;;;;;0.20;100.00;97661.38;4980587;28;20678;-72
2021/11/25 00:36:54;;;;;;;16.50;12.90;;;;;;;0.29;100.00;97662.50;4962260;28;20457;-72
2021/11/25 00:39:22;;;;;;;14.97;12.77;;;;;;;0.18;100.00;97665.03;4976934;28;20205;-72
2021/11/25 00:41:50;;;;;;;16.73;13.43;;;;;;;0.24;100.00;97654.16;4982296;28;20304;-72
2021/11/25 00:44:19;;;;;;;19.10;12.93;;;;;;;0.29;100.00;97654.69;4976851;28;20229;-72
2021/11/25 00:46:47;;;;;;;19.23;13.73;;;;;;;0.29;100.00;97657.28;4927408;28;21011;-72
2021/11/25 00:49:15;;;;;;;17.40;13.93;;;;;;;0.26;100.00;97650.53;4984011;28;20205;-72
2021/11/25 00:51:45;;;;;;;19.87;15.10;;;;;;;0.21;100.00;97649.19;4975732;28;20495;-72
2021/11/25 00:54:14;;;;;;;18.67;14.53;;;;;;;0.22;100.00;97649.09;4959704;28;20233;-72
2021/11/25 00:56:42;;;;;;;18.60;14.53;;;;;;;0.25;100.00;97648.88;4977076;28;20197;-72
2021/11/25 00:59:11;;;;;;;17.83;13.83;;;;;;;0.18;100.00;97634.56;4984210;28;20217;-72
2021/11/25 01:01:39;;;;;;;17.57;14.33;;;;;;;0.17;100.00;97648.53;4919655;28;20633;-73
2021/11/25 01:04:07;;;;;;;17.13;13.47;;;;;;;0.14;100.00;97643.53;4981451;28;20965;-72
2021/11/25 01:06:35;;;;;;;18.60;14.57;;;;;;;0.16;100.00;97644.28;4975737;28;20494;-73
2021/11/25 01:09:06;;;;;;;18.37;15.20;;;;;;;0.21;100.00;97639.59;4956724;28;20471;-72
2021/11/25 01:11:43;;;;;;;17.40;13.53;;;;;;;0.16;100.00;97633.84;4974869;28;20594;-72
2021/11/25 01:14:11;;;;;;;18.20;14.40;;;;;;;0.20;100.00;97637.09;4975046;28;20900;-72
2021/11/25 01:16:39;;;;;;;19.37;14.73;;;;;;;0.25;100.00;97635.84;4929693;28;20217;-72
2021/11/25 01:19:07;;;;;;;18.53;14.33;;;;;;;0.23;100.00;97635.09;4966654;28;20205;-71
2021/11/25 01:21:35;;;;;;;17.00;14.30;;;;;;;0.25;100.00;97632.38;4971840;28;20213;-72
2021/11/25 01:24:05;;;;;;;17.37;13.83;;;;;;;0.21;100.00;97615.28;4957101;28;20221;-72
2021/11/25 01:26:34;;;;;;;16.50;13.93;;;;;;;0.31;100.00;97620.69;4979155;28;20759;-72
2021/11/25 01:29:02;;;;;;;20.57;14.90;;;;;;;0.34;100.00;97623.91;4969978;28;20217;-72
2021/11/25 01:31:30;;;;;;;19.93;13.93;;;;;;;0.31;100.00;97618.91;4926443;28;20221;-72
2021/11/25 01:33:58;;;;;;;17.17;14.77;;;;;;;0.30;100.00;97622.44;4972302;28;20225;-72
2021/11/25 01:36:26;;;;;;;16.97;14.80;;;;;;;0.33;100.00;97622.22;4972667;28;20221;-72
2021/11/25 01:38:54;;;;;;;15.13;13.47;;;;;;;0.27;100.00;97618.31;4978200;28;20213;-72
2021/11/25 01:41:23;;;;;;;17.27;15.20;;;;;;;0.27;100.00;97620.06;4963906;28;20216;-72
2021/11/25 01:43:52;;;;;;;17.87;13.90;;;;;;;0.22;100.00;97614.34;4976012;28;20229;-72
2021/11/25 01:46:21;;;;;;;20.27;16.23;;;;;;;0.23;100.00;97619.47;4922171;28;20848;-72
2021/11/25 01:48:51;;;;;;;17.03;14.97;;;;;;;0.24;100.00;97618.53;4976601;28;20257;-72
2021/11/25 01:51:21;;;;;;;18.27;15.57;;;;;;;0.19;100.00;97618.03;4975674;28;20209;-72
2021/11/25 01:53:50;;;;;;;19.37;15.80;;;;;;;0.21;100.00;97599.66;4966325;28;20240;-72
2021/11/25 01:56:18;;;;;;;18.53;14.70;;;;;;;0.28;100.00;97604.34;4954528;28;20664;-72
2021/11/25 01:58:48;;;;;;;19.33;14.30;;;;;;;0.22;100.00;97599.56;4976822;28;20209;-72
2021/11/25 02:01:19;;;;;;;19.73;14.63;;;;;;;0.32;100.00;97591.09;4969698;28;20786;-73
2021/11/25 02:03:48;;;;;;;18.47;15.40;;;;;;;0.23;100.00;97590.81;4919921;28;20240;-73
2021/11/25 02:06:17;;;;;;;18.40;15.13;;;;;;;0.15;100.00;97582.66;4973683;28;20886;-73
2021/11/25 02:08:45;;;;;;;20.77;15.47;;;;;;;0.18;100.00;97585.06;4972361;28;20216;-73
2021/11/25 02:11:13;;;;;;;21.47;17.30;;;;;;;0.20;100.00;97572.78;4956711;28;21132;-73
2021/11/25 02:13:41;;;;;;;17.83;14.53;;;;;;;0.26;100.00;97579.31;4970582;28;20239;-73
2021/11/25 02:16:11;;;;;;;16.43;14.07;;;;;;;0.21;100.00;97565.78;4965836;28;20327;-73
2021/11/25 02:18:39;;;;;;;19.67;15.77;;;;;;;0.16;100.00;97565.28;4940638;28;20709;-73
2021/11/25 02:21:09;;;;;;;17.10;14.37;;;;;;;0.19;100.00;97552.03;4988871;28;20192;-72
2021/11/25 02:23:37;;;;;;;18.17;15.20;;;;;;;0.24;100.00;97545.56;4988124;28;20635;-72
2021/11/25 02:26:06;;;;;;;17.77;14.73;;;;;;;0.30;100.00;97551.25;4985591;28;20326;-73
2021/11/25 02:28:37;;;;;;;21.47;15.87;;;;;;;0.20;100.00;97551.09;4976536;28;20228;-73
2021/11/25 02:31:06;;;;;;;18.43;15.07;;;;;;;0.30;100.00;97552.06;4989247;28;20817;-73
2021/11/25 02:33:35;;;;;;;18.23;14.80;;;;;;;0.21;100.00;97548.38;4946938;28;20234;-73
2021/11/25 02:36:03;;;;;;;19.00;15.17;;;;;;;0.23;100.00;97538.69;4990580;28;20399;-73
2021/11/25 02:38:33;;;;;;;18.43;15.30;;;;;;;0.25;100.00;97536.78;4998348;28;20201;-72
2021/11/25 02:41:01;;;;;;;17.00;14.40;;;;;;;0.25;100.00;97530.72;5000515;28;20208;-73
2021/11/25 02:43:31;;;;;;;20.03;15.57;;;;;;;0.24;100.00;97529.06;4986709;28;20228;-73
2021/11/25 02:46:01;;;;;;;18.70;16.00;;;;;;;0.12;100.00;97529.00;4990235;28;20212;-73
2021/11/25 02:48:31;;;;;;;20.63;15.47;;;;;;;0.10;100.00;97538.72;5000036;28;20317;-73
2021/11/25 02:51:01;;;;;;;18.00;14.83;;;;;;;0.12;100.00;97530.78;4939595;28;20412;-73
2021/11/25 02:53:32;;;;;;;17.43;14.53;;;;;;;0.08;100.00;97529.31;4993298;28;20246;-73
2021/11/25 02:56:03;;;;;;;20.33;15.63;;;;;;;0.04;100.00;97527.88;4992147;28;20599;-73
2021/11/25 02:58:31;;;;;;;19.33;14.97;;;;;;;0.04;100.00;97518.31;4977963;28;20212;-72
2021/11/25 03:01:04;;;;;;;17.60;14.33;;;;;;;0.11;100.00;97516.06;4993293;28;20317;-72
2021/11/25 03:03:32;;;;;;;19.97;15.93;;;;;;;0.04;100.00;97513.09;4995562;28;20308;-72
2021/11/25 03:06:00;;;;;;;19.13;14.70;;;;;;;-0.01;100.00;97510.81;4935883;28;20559;-72
2021/11/25 03:08:28;;;;;;;18.87;13.97;;;;;;;0.08;100.00;97516.31;5000215;28;20219;-73
2021/11/25 03:11:02;;;;;;;22.20;16.53;;;;;;;0.05;100.00;97506.09;4999807;28;20207;-73
2021/11/25 03:13:31;;;;;;;20.83;15.30;;;;;;;0.05;100.00;97506.09;4995257;28;20505;-73
2021/11/25 03:15:59;;;;;;;23.07;16.23;;;;;;;0.03;100.00;97507.97;4978951;28;20216;-72
2021/11/25 03:18:28;;;;;;;23.70;16.47;;;;;;;0.03;100.00;97503.63;4992387;28;20637;-73
2021/11/25 03:20:57;;;;;;;22.37;15.77;;;;;;;-0.04;100.00;97515.41;4944296;28;20403;-72
2021/11/25 03:23:28;;;;;;;20.27;15.07;;;;;;;-0.06;100.00;97514.66;4993637;28;20454;-72
2021/11/25 03:25:57;;;;;;;17.67;13.80;;;;;;;0.05;100.00;97519.13;4998010;28;20707;-73
2021/11/25 03:28:27;;;;;;;20.17;15.23;;;;;;;0.13;100.00;97519.41;4992567;28;20915;-72
2021/11/25 03:30:55;;;;;;;21.53;15.00;;;;;;;0.03;100.00;97511.44;4979393;28;20217;-72
2021/11/25 03:33:25;;;;;;;19.73;14.77;;;;;;;-0.02;100.00;97505.69;4996466;28;20501;-73
2021/11/25 03:35:53;;;;;;;19.03;15.53;;;;;;;-0.05;100.00;97498.94;4935777;28;20217;-73
2021/11/25 03:38:22;;;;;;;21.93;15.83;;;;;;;0.01;100.00;97502.06;4990375;28;20209;-73
2021/11/25 03:40:50;;;;;;;21.87;15.63;;;;;;;-0.04;100.00;97486.75;4999324;28;20208;-73
2021/11/25 03:43:18;;;;;;;20.17;15.57;;;;;;;-0.10;100.00;97482.81;4994711;28;20228;-73
2021/11/25 03:45:48;;;;;;;21.50;14.87;;;;;;;0.02;100.00;97483.72;4991897;28;20692;-73
2021/11/25 03:48:16;;;;;;;20.27;15.63;;;;;;;-0.04;100.00;97484.13;4992452;28;20507;-73
2021/11/25 03:50:50;;;;;;;22.77;16.63;;;;;;;-0.10;100.00;97474.16;4942655;28;20720;-72
2021/11/25 03:53:18;;;;;;;18.57;15.80;;;;;;;-0.03;100.00;97481.44;4994172;28;20220;-72
2021/11/25 03:55:46;;;;;;;19.60;14.60;;;;;;;0.01;100.00;97476.84;4969831;28;20837;-73
2021/11/25 03:58:14;;;;;;;22.97;15.70;;;;;;;-0.03;100.00;97478.81;4993506;28;20201;-73
2021/11/25 04:00:42;;;;;;;21.67;15.77;;;;;;;-0.08;100.00;97472.28;4974632;28;20231;-73
2021/11/25 04:03:12;;;;;;;21.17;16.97;;;;;;;-0.13;100.00;97467.41;4986556;28;20268;-73
2021/11/25 04:05:40;;;;;;;17.67;14.83;;;;;;;-0.12;100.00;97474.28;4993508;28;20252;-72
2021/11/25 04:08:09;;;;;;;19.87;14.13;;;;;;;-0.03;100.00;97464.94;4930866;28;20228;-73
2021/11/25 04:10:37;;;;;;;22.27;16.70;;;;;;;-0.09;100.00;97470.59;4993080;28;20819;-73
2021/11/25 04:13:05;;;;;;;24.00;16.60;;;;;;;-0.12;100.00;97471.69;4992827;28;20232;-72
2021/11/25 04:15:33;;;;;;;21.53;16.00;;;;;;;-0.05;100.00;97469.44;4977304;28;20231;-72
2021/11/25 04:18:02;;;;;;;25.57;16.63;;;;;;;-0.12;100.00;97465.63;4999787;28;20320;-72
2021/11/25 04:20:31;;;;;;;20.13;16.03;;;;;;;-0.06;100.00;97457.38;4982653;28;20448;-72
2021/11/25 04:22:59;;;;;;;19.23;14.67;;;;;;;-0.06;100.00;97457.38;4938697;28;20665;-72
2021/11/25 04:25:27;;;;;;;23.63;16.33;;;;;;;-0.15;100.00;97462.28;4990239;28;20223;-72
2021/11/25 04:27:56;;;;;;;23.33;17.37;;;;;;;-0.21;100.00;97454.09;4999878;28;20251;-72
2021/11/25 04:30:27;;;;;;;25.50;16.57;;;;;;;-0.18;100.00;97454.72;4992296;28;20289;-72
2021/11/25 04:35:42;;;;;;;23.17;16.37;;;;;;;-0.22;100.00;97449.81;4997690;28;20315;-72
2021/11/25 04:38:13;;;;;;;22.00;14.83;;;;;;;-0.10;100.00;97454.16;5018335;23;20502;-73
2021/11/25 04:40:43;;;;;;;22.50;15.87;;;;;;;-0.12;100.00;97447.38;5039590;28;20562;-73
2021/11/25 04:43:12;;;;;;;23.67;16.00;;;;;;;-0.14;100.00;97447.50;5044553;28;20200;-74
2021/11/25 04:45:42;;;;;;;19.60;15.03;;;;;;;-0.19;100.00;97449.59;5031123;28;21352;-72
2021/11/25 04:48:10;;;;;;;20.83;14.90;;;;;;;-0.22;100.00;97445.44;5033471;28;20392;-72
2021/11/25 04:50:40;;;;;;;26.90;17.57;;;;;;;-0.12;100.00;97440.41;5029653;28;20218;-73
2021/11/25 04:53:11;;;;;;;20.80;15.83;;;;;;;-0.23;100.00;97433.38;5012456;28;20711;-74
2021/11/25 04:55:40;;;;;;;22.07;16.40;;;;;;;-0.22;100.00;97434.19;5021869;28;20226;-76
2021/11/25 04:58:08;;;;;;;22.33;16.83;;;;;;;-0.07;100.00;97427.03;5045638;28;20580;-74
2021/11/25 05:00:36;;;;;;;22.67;15.53;;;;;;;-0.12;100.00;97429.16;5016723;28;20219;-75
2021/11/25 05:03:05;;;;;;;20.80;15.67;;;;;;;-0.20;100.00;97424.50;5033011;28;20227;-74
2021/11/25 05:05:33;;;;;;;24.43;17.57;;;;;;;-0.18;100.00;97427.84;5030576;28;20211;-73
2021/11/25 05:08:01;;;;;;;23.37;16.70;;;;;;;-0.16;100.00;97434.59;5044829;28;20234;-75
2021/11/25 05:10:31;;;;;;;24.63;17.17;;;;;;;-0.08;100.00;97428.84;5014982;28;20211;-76
2021/11/25 05:12:59;;;;;;;21.67;15.17;;;;;;;-0.12;100.00;97424.78;5045932;28;20239;-73
2021/11/25 05:15:27;;;;;;;24.53;14.83;;;;;;;-0.07;100.00;97411.41;5046573;28;21561;-74
2021/11/25 05:17:55;;;;;;;23.07;16.93;;;;;;;-0.10;100.00;97422.06;5045194;28;20454;-73
2021/11/25 05:20:23;;;;;;;20.07;14.87;;;;;;;-0.18;100.00;97420.84;5030198;28;20202;-66
2021/11/25 05:22:51;;;;;;;24.10;17.03;;;;;;;-0.21;100.00;97421.06;5034604;28;20203;-66
2021/11/25 05:25:20;;;;;;;25.30;17.07;;;;;;;-0.17;100.00;97419.91;5013452;28;20226;-66
2021/11/25 05:27:49;;;;;;;23.47;16.20;;;;;;;-0.12;100.00;97421.34;5043436;28;20699;-66
2021/11/25 05:30:18;;;;;;;21.50;17.57;;;;;;;-0.26;100.00;97417.97;5049385;28;20223;-67
2021/11/25 05:32:47;;;;;;;24.73;17.43;;;;;;;-0.10;100.00;97417.69;5028990;28;20238;-67
2021/11/25 05:35:22;;;;;;;25.33;18.37;;;;;;;-0.21;100.00;97415.00;5019392;28;20329;-66
2021/11/25 05:37:50;;;;;;;27.10;16.80;;;;;;;-0.25;100.00;97418.78;5031629;28;20262;-67
2021/11/25 05:40:18;;;;;;;22.43;17.43;;;;;;;-0.24;100.00;97415.22;5020730;28;20790;-68
2021/11/25 05:42:47;;;;;;;33.97;19.97;;;;;;;-0.27;100.00;97426.72;5041058;28;20210;-68
2021/11/25 05:45:19;;;;;;;29.73;21.57;;;;;;;-0.37;100.00;97420.50;5039300;28;20204;-68
2021/11/25 05:47:47;;;;;;;25.97;19.67;;;;;;;-0.40;100.00;97418.94;5037101;28;20725;-67
2021/11/25 05:50:18;;;;;;;26.47;18.57;;;;;;;-0.35;100.00;97416.84;5029837;28;20238;-67
2021/11/25 05:52:48;;;;;;;27.77;19.80;;;;;;;-0.36;100.00;97415.19;5036107;28;20215;-70
2021/11/25 05:55:16;;;;;;;27.47;17.57;;;;;;;-0.28;100.00;97414.66;5015925;28;20714;-71
2021/11/25 05:57:44;;;;;;;23.80;18.03;;;;;;;-0.24;100.00;97416.09;5022419;28;20419;-71
2021/11/25 06:00:14;;;;;;;24.90;18.53;;;;;;;-0.34;100.00;97413.31;5048566;28;20252;-71
2021/11/25 06:02:45;;;;;;;23.27;17.13;;;;;;;-0.25;100.00;97416.19;5034787;28;20556;-71
2021/11/25 06:05:27;;;;;;;23.07;16.70;;;;;;;-0.33;100.00;97414.16;5033747;28;20613;-71
2021/11/25 06:08:17;;;;;;;23.33;17.03;;;;;;;-0.28;100.00;97419.00;5028475;28;20234;-71
2021/11/25 06:10:48;;;;;;;24.17;15.53;;;;;;;-0.30;100.00;97419.94;5014473;28;20227;-71
2021/11/25 06:13:16;;;;;;;23.00;17.23;;;;;;;-0.32;100.00;97411.41;5026193;28;20213;-70
2021/11/25 06:15:46;;;;;;;26.20;18.53;;;;;;;-0.22;100.00;97414.19;5045736;28;20207;-71
2021/11/25 06:18:16;;;;;;;25.57;18.57;;;;;;;-0.22;100.00;97413.34;5033363;28;20219;-69
2021/11/25 06:20:44;;;;;;;27.00;18.90;;;;;;;-0.32;100.00;97410.59;5034351;28;20201;-70
2021/11/25 06:23:13;;;;;;;24.47;17.37;;;;;;;-0.27;100.00;97415.47;5041297;28;20214;-70
2021/11/25 06:25:43;;;;;;;31.73;19.00;;;;;;;-0.33;100.00;97414.97;5009856;28;20223;-71
2021/11/25 06:28:12;;;;;;;23.37;16.63;;;;;;;-0.22;100.00;97413.34;5038082;28;20697;-69
2021/11/25 06:30:40;;;;;;;28.57;18.93;;;;;;;0.01;100.00;97416.06;5045140;28;20261;-71
2021/11/25 06:33:08;;;;;;;22.80;18.57;;;;;;;0.14;100.00;97414.22;5040090;28;20579;-71
2021/11/25 06:35:39;;;;;;;24.90;18.57;;;;;;;0.07;100.00;97413.88;5019314;28;21311;-70
2021/11/25 06:38:08;;;;;;;26.37;18.53;;;;;;;0.08;100.00;97418.13;5043142;28;20234;-70
2021/11/25 06:40:37;;;;;;;27.83;19.30;;;;;;;0.29;100.00;97433.13;5032422;28;20215;-70
2021/11/25 06:43:07;;;;;;;27.17;20.90;;;;;;;0.18;100.00;97435.69;5014385;28;20219;-69
2021/11/25 06:45:36;;;;;;;31.30;19.87;;;;;;;0.13;100.00;97431.66;5029684;28;20341;-70
2021/11/25 06:48:05;;;;;;;27.70;19.13;;;;;;;0.11;100.00;97433.53;5045839;28;20794;-69
2021/11/25 06:50:33;;;;;;;26.83;20.47;;;;;;;0.05;100.00;97434.00;5038609;28;20429;-69
2021/11/25 06:53:03;;;;;;;27.93;19.20;;;;;;;0.06;100.00;97438.25;5034417;28;20575;-71
2021/11/25 06:55:31;;;;;;;25.80;18.23;;;;;;;-0.02;100.00;97446.63;5027724;28;21440;-71
2021/11/25 06:57:59;;;;;;;30.17;19.77;;;;;;;-0.02;100.00;97440.56;5016819;28;20239;-70
2021/11/25 07:00:27;;;;;;;22.73;16.90;;;;;;;-0.04;100.00;97432.03;5025587;28;20402;-69
2021/11/25 07:02:56;;;;;;;26.60;18.53;;;;;;;0.07;100.00;97437.31;5045762;28;20233;-70
2021/11/25 07:05:25;;;;;;;28.57;21.50;;;;;;;0.24;100.00;97436.09;5027588;28;20231;-70
2021/11/25 07:07:54;;;;;;;26.40;18.20;;;;;;;0.30;100.00;97447.81;5032419;28;20603;-71
2021/11/25 07:10:24;;;;;;;24.33;19.47;;;;;;;0.30;100.00;97450.41;5023366;28;20528;-70
2021/11/25 07:12:53;;;;;;;27.67;18.80;;;;;;;0.41;100.00;97454.84;5016035;28;20211;-71
2021/11/25 07:15:30;;;;;;;25.27;19.43;;;;;;;0.30;100.00;97445.22;5027405;28;20241;-70
2021/11/25 07:17:58;;;;;;;29.50;19.80;;;;;;;0.44;100.00;97438.97;5047143;28;20226;-69
2021/11/25 07:20:26;;;;;;;25.87;18.83;;;;;;;0.42;100.00;97428.69;5039122;28;20204;-68
2021/11/25 07:23:01;;;;;;;25.43;17.30;;;;;;;0.54;100.00;97429.53;5036550;28;20234;-68
2021/11/25 07:25:30;;;;;;;28.80;18.00;;;;;;;0.83;100.00;97434.31;5034578;28;20206;-69
2021/11/25 07:27:58;;;;;;;25.53;19.73;;;;;;;0.55;100.00;97436.41;5008509;28;20231;-67
2021/11/25 07:30:26;;;;;;;24.43;18.37;;;;;;;0.66;100.00;97446.03;5043130;28;20734;-69
2021/11/25 07:32:54;;;;;;;27.50;19.70;;;;;;;0.52;100.00;97438.41;5035024;28;20586;-69
2021/11/25 07:35:23;;;;;;;27.53;18.33;;;;;;;0.60;100.00;97441.28;5040317;28;20200;-70
2021/11/25 07:37:53;;;;;;;22.13;16.53;;;;;;;0.54;100.00;97433.91;5042183;28;20801;-70
2021/11/25 07:40:24;;;;;;;25.13;16.67;;;;;;;0.61;100.00;97429.91;5034635;28;20840;-69
2021/11/25 07:42:54;;;;;;;27.07;18.77;;;;;;;0.44;100.00;97438.97;5035395;28;20207;-70
2021/11/25 07:45:26;;;;;;;26.63;16.73;;;;;;;0.53;100.00;97432.25;5018612;28;20300;-70
2021/11/25 07:47:54;;;;;;;29.00;18.20;;;;;;;0.48;100.00;97440.41;5039403;28;20234;-70
2021/11/25 07:50:26;;;;;;;22.07;18.83;;;;;;;0.47;100.00;97445.75;5045445;28;20530;-70
2021/11/25 07:53:05;;;;;;;27.83;17.70;;;;;;;0.42;100.00;97440.88;5044879;28;20199;-70
2021/11/25 07:55:34;;;;;;;28.07;20.03;;;;;;;0.34;100.00;97440.63;5027636;28;20546;-71
2021/11/25 07:58:04;;;;;;;27.30;19.00;;;;;;;0.60;100.00;97435.25;5033108;28;20239;-70
2021/11/25 08:00:34;;;;;;;26.73;19.53;;;;;;;0.57;100.00;97431.94;5019581;28;20239;-71
2021/11/25 08:03:03;;;;;;;24.17;17.20;;;;;;;0.54;100.00;97434.72;5025151;28;20330;-70
2021/11/25 08:05:31;;;;;;;26.17;17.13;;;;;;;0.35;100.00;97426.63;5047122;28;20207;-71
2021/11/25 08:08:00;;;;;;;25.03;18.03;;;;;;;0.23;100.00;97434.44;5049012;28;20234;-71
2021/11/25 08:10:29;;;;;;;28.20;19.07;;;;;;;0.21;100.00;97428.50;5026888;28;20438;-70
2021/11/25 08:13:02;;;;;;;31.50;20.47;;;;;;;0.02;100.00;97422.94;5035822;28;20222;-71
2021/11/25 08:15:31;;;;;;;23.43;17.40;;;;;;;0.12;100.00;97435.19;5015140;28;20495;-70
2021/11/25 08:18:00;;;;;;;31.30;20.37;;;;;;;0.02;100.00;97430.75;5036827;28;20258;-70
2021/11/25 08:20:28;;;;;;;26.13;18.27;;;;;;;0.15;100.00;97428.91;5038498;28;20196;-71
2021/11/25 08:22:56;;;;;;;29.03;18.43;;;;;;;0.05;100.00;97422.72;5048928;28;20222;-72
2021/11/25 08:25:24;;;;;;;30.83;19.17;;;;;;;0.04;100.00;97416.69;5029840;28;20222;-70
2021/11/25 08:27:55;;;;;;;30.57;19.50;;;;;;;-0.08;100.00;97423.63;5041137;28;20336;-71
2021/11/25 08:30:24;;;;;;;27.10;19.33;;;;;;;-0.02;100.00;97425.78;5005440;28;20257;-71
2021/11/25 08:32:53;;;;;;;27.60;17.33;;;;;;;-0.02;100.00;97425.78;5032138;28;20210;-71
2021/11/25 08:35:23;;;;;;;26.53;18.70;;;;;;;0.02;100.00;97420.34;5043271;28;20603;-70
2021/11/25 08:37:52;;;;;;;27.10;17.93;;;;;;;0.07;100.00;97418.22;5050491;28;20258;-69
2021/11/25 08:40:20;;;;;;;31.53;18.63;;;;;;;0.09;100.00;97430.22;5034203;28;20199;-70
2021/11/25 08:42:50;;;;;;;21.80;16.80;;;;;;;0.14;100.00;97432.47;5038608;28;20223;-70
2021/11/25 08:45:19;;;;;;;22.17;16.07;;;;;;;0.21;100.00;97440.69;5035278;28;20203;-69
2021/11/25 08:47:47;;;;;;;29.13;17.77;;;;;;;0.22;100.00;97440.59;5014560;28;20707;-71
2021/11/25 08:50:19;;;;;;;20.83;15.13;;;;;;;0.43;100.00;97440.78;5027842;28;20277;-70
2021/11/25 08:52:47;;;;;;;25.93;17.67;;;;;;;0.34;100.00;97438.81;5044905;28;20211;-70
2021/11/25 08:55:15;;;;;;;21.87;16.73;;;;;;;0.37;100.00;97435.16;5029897;28;20579;-69
2021/11/25 08:57:44;;;;;;;29.63;17.97;;;;;;;0.23;100.00;97439.63;5043972;28;20223;-70
2021/11/25 09:00:13;;;;;;;27.37;18.43;;;;;;;0.24;100.00;97435.25;5034835;28;20310;-68
2021/11/25 09:02:41;;;;;;;23.37;16.87;;;;;;;0.38;100.00;97445.50;5016386;28;20241;-69
2021/11/25 09:05:11;;;;;;;26.53;17.93;;;;;;;0.22;100.00;97440.59;5028627;28;20212;-67
2021/11/25 09:07:41;;;;;;;27.40;17.90;;;;;;;0.32;100.00;97437.28;5043908;28;20533;-69
2021/11/25 09:10:22;;;;;;;29.47;20.47;;;;;;;0.48;100.00;97444.81;5028801;28;20212;-69
2021/11/25 09:12:51;;;;;;;28.47;18.73;;;;;;;0.38;100.00;97452.47;5043361;28;20211;-70
2021/11/25 09:15:24;;;;;;;25.10;18.03;;;;;;;0.36;100.00;97446.53;5028105;28;20559;-69
2021/11/25 09:17:52;;;;;;;26.00;18.63;;;;;;;0.22;100.00;97442.34;5047637;28;20733;-68
2021/11/25 09:20:25;;;;;;;22.33;17.33;;;;;;;0.46;100.00;97433.66;5000393;28;20296;-68
2021/11/25 09:22:55;;;;;;;29.87;18.60;;;;;;;0.48;100.00;97422.16;5042098;28;20214;-68
2021/11/25 09:25:23;;;;;;;27.83;18.80;;;;;;;0.48;100.00;97423.94;5031568;28;20985;-68
2021/11/25 09:27:51;;;;;;;27.67;17.80;;;;;;;0.48;100.00;97416.13;5041830;28;20254;-69
2021/11/25 09:30:20;;;;;;;28.70;20.23;;;;;;;0.53;100.00;97409.59;5029495;28;20207;-69
2021/11/25 09:32:48;;;;;;;26.00;18.87;;;;;;;0.47;100.00;97422.28;5031102;28;20238;-69
2021/11/25 09:35:17;;;;;;;24.47;18.77;;;;;;;0.55;100.00;97412.94;4998759;28;20272;-69
2021/11/25 09:37:46;;;;;;;24.40;16.17;;;;;;;0.46;100.00;97405.81;5045050;28;20235;-71
2021/11/25 09:40:22;;;;;;;22.57;15.87;;;;;;;0.36;100.00;97405.66;5036426;28;20203;-70
2021/11/25 09:42:52;;;;;;;27.47;17.30;;;;;;;0.28;100.00;97402.78;5043933;28;20207;-69
2021/11/25 09:45:22;;;;;;;22.67;17.07;;;;;;;0.36;100.00;97402.22;5031977;28;20250;-69
2021/11/25 09:47:52;;;;;;;28.87;17.13;;;;;;;0.36;100.00;97397.00;5041864;28;20231;-69
2021/11/25 09:50:22;;;;;;;29.37;17.97;;;;;;;0.36;100.00;97395.22;4996218;28;20226;-68
2021/11/25 09:52:52;;;;;;;24.67;17.90;;;;;;;0.55;100.00;97386.03;5045248;28;20211;-68
2021/11/25 09:55:22;;;;;;;27.13;18.50;;;;;;;0.49;100.00;97382.09;5043104;28;20214;-69
2021/11/25 09:57:51;;;;;;;26.20;19.23;;;;;;;0.57;100.00;97384.16;5038270;28;20230;-70
2021/11/25 10:00:21;;;;;;;30.27;20.80;;;;;;;0.34;100.00;97375.44;5028065;28;20206;-68
2021/11/25 10:02:49;;;;;;;28.10;18.53;;;;;;;0.36;100.00;97382.19;5043728;28;20206;-69
2021/11/25 10:05:17;;;;;;;29.80;19.17;;;;;;;0.34;100.00;97378.06;4995551;28;20282;-67
2021/11/25 10:07:46;;;;;;;27.73;18.00;;;;;;;0.44;100.00;97379.03;5044863;28;20748;-68
2021/11/25 10:10:20;;;;;;;24.10;16.83;;;;;;;0.40;100.00;97374.97;5041449;28;20204;-69
2021/11/25 10:12:58;;;;;;;28.27;18.30;;;;;;;0.13;100.00;97376.94;5032575;28;20230;-68
2021/11/25 10:15:32;;;;;;;28.07;18.37;;;;;;;0.23;100.00;97377.09;5023027;28;20199;-68
2021/11/25 10:18:02;;;;;;;32.37;19.40;;;;;;;0.32;100.00;97370.34;5045746;28;20230;-68
2021/11/25 10:20:32;;;;;;;28.77;18.00;;;;;;;0.24;100.00;97363.09;5000790;28;20227;-68
2021/11/25 10:23:15;;;;;;;30.07;18.10;;;;;;;0.27;100.00;97367.25;5027337;28;20207;-67
2021/11/25 10:25:45;;;;;;;30.07;19.00;;;;;;;0.26;100.00;97361.22;5038922;28;20222;-69
2021/11/25 10:28:30;;;;;;;31.07;19.23;;;;;;;0.27;100.00;97360.28;5028645;28;20227;-68
2021/11/25 10:31:02;;;;;;;30.87;18.67;;;;;;;0.28;100.00;97363.69;5034138;28;20595;-69
2021/11/25 10:33:34;;;;;;;28.27;18.67;;;;;;;0.30;100.00;97359.19;5044899;28;20495;-70
2021/11/25 10:39:04;;;;;;;26.17;18.93;;;;;;;0.16;100.00;97362.00;5000222;28;20262;-70
2021/11/25 10:41:32;;;;;;;25.33;18.07;;;;;;;0.28;100.00;97354.13;5046056;28;20428;-69
2021/11/25 10:44:14;;;;;;;24.30;16.87;;;;;;;0.22;100.00;97364.16;5036456;28;20214;-70
2021/11/25 10:46:45;;;;;;;32.27;19.97;;;;;;;0.43;100.00;97364.31;5031432;28;20675;-69
2021/11/25 10:49:14;;;;;;;30.33;19.57;;;;;;;0.35;100.00;97364.88;5043380;28;20219;-69
2021/11/25 10:51:45;;;;;;;27.37;18.73;;;;;;;0.29;100.00;97373.16;5012816;28;20616;-72
2021/11/25 10:54:18;;;;;;;31.53;19.37;;;;;;;0.19;100.00;97365.22;5027993;28;20211;-69
2021/11/25 10:56:48;;;;;;;29.70;21.23;;;;;;;0.30;100.00;97366.19;5045852;28;20228;-71
2021/11/25 10:59:20;;;;;;;29.83;19.77;;;;;;;0.31;100.00;97371.28;5035497;28;20298;-70
2021/11/25 11:01:49;;;;;;;27.77;19.03;;;;;;;0.36;100.00;97370.94;5033859;28;20788;-72
2021/11/25 11:04:22;;;;;;;29.07;20.33;;;;;;;0.23;100.00;97376.25;5051383;28;20290;-72
2021/11/25 11:06:54;;;;;;;25.83;18.87;;;;;;;0.21;100.00;97378.97;5020288;28;20229;-72
2021/11/25 11:09:31;;;;;;;33.40;21.70;;;;;;;0.22;100.00;97380.63;5030834;28;20210;-70
2021/11/25 11:12:20;;;;;;;28.53;19.57;;;;;;;0.14;100.00;97377.75;5041446;28;20229;-71
2021/11/25 11:14:54;;;;;;;32.07;19.83;;;;;;;0.18;100.00;97375.75;5036942;28;20249;-72
2021/11/25 11:17:27;;;;;;;31.00;18.50;;;;;;;0.24;100.00;97372.69;5028975;28;20238;-72
2021/11/25 11:20:10;;;;;;;30.57;19.03;;;;;;;0.26;100.00;97370.81;5053617;28;20697;-71
2021/11/25 11:22:39;;;;;;;28.97;19.97;;;;;;;0.23;100.00;97365.81;5018589;28;21072;-71
2021/11/25 11:25:11;;;;;;;26.73;18.57;;;;;;;0.25;100.00;97363.94;5029856;28;20666;-71
2021/11/25 11:27:39;;;;;;;27.83;18.17;;;;;;;0.36;100.00;97363.13;5044569;28;20546;-71
2021/11/25 11:30:10;;;;;;;23.83;18.30;;;;;;;0.36;100.00;97366.56;5034274;28;20229;-71
2021/11/25 11:32:38;;;;;;;27.53;18.90;;;;;;;0.26;100.00;97357.78;5034956;28;21105;-71